sensor_id;sensor_type;location;lat;lon;timestamp;P1;durP1;ratioP1;P2;durP2;ratioP2
22983;SDS011;11658;48.908;9.140;2023-02-12T12:23:59;5.37;;;4.83;;
22983;SDS011;11658;48.908;9.140;2023-02-12T12:26:30;7.03;;;4.10;;
22983;SDS011;11658;48.908;9.140;2023-02-12T12:31:37;4.57;;;3.03;;
22983;SDS011;11658;48.908;9.140;2023-02-12T12:39:39;5.33;;;4.83;;
22983;SDS011;11658;48.908;9.140;2023-02-12T12:58:10;3.07;;;2.60;;
22983;SDS011;11658;48.908;9.140;2023-02-12T13:14:38;2.97;;;2.50;;
22983;SDS011;11658;48.908;9.140;2023-02-12T13:22:47;3.67;;;3.13;;
22983;SDS011;11658;48.908;9.140;2023-02-12T13:28:02;6.10;;;3.47;;
22983;SDS011;11658;48.908;9.140;2023-02-12T13:30:35;4.40;;;2.97;;
22983;SDS011;11658;48.908;9.140;2023-02-12T13:33:08;3.73;;;3.20;;
22983;SDS011;11658;48.908;9.140;2023-02-12T13:35:40;3.40;;;2.97;;
22983;SDS011;11658;48.908;9.140;2023-02-12T13:38:14;3.63;;;2.77;;
22983;SDS011;11658;48.908;9.140;2023-02-12T13:40:44;3.73;;;3.10;;
22983;SDS011;11658;48.908;9.140;2023-02-12T13:46:05;4.10;;;3.70;;
22983;SDS011;11658;48.908;9.140;2023-02-12T13:51:49;4.43;;;3.80;;
22983;SDS011;11658;48.908;9.140;2023-02-12T13:57:00;5.20;;;4.23;;
22983;SDS011;11658;48.908;9.140;2023-02-12T14:02:04;4.20;;;3.80;;
22983;SDS011;11658;48.908;9.140;2023-02-12T14:04:43;4.63;;;4.03;;
22983;SDS011;11658;48.908;9.140;2023-02-12T14:07:11;4.73;;;3.87;;
22983;SDS011;11658;48.908;9.140;2023-02-12T14:15:06;5.53;;;4.20;;
22983;SDS011;11658;48.908;9.140;2023-02-12T14:27:48;4.70;;;3.63;;
22983;SDS011;11658;48.908;9.140;2023-02-12T14:37:54;3.67;;;3.10;;
22983;SDS011;11658;48.908;9.140;2023-02-12T14:43:00;2.90;;;2.60;;
22983;SDS011;11658;48.908;9.140;2023-02-12T14:45:34;2.93;;;2.60;;
22983;SDS011;11658;48.908;9.140;2023-02-12T14:48:01;4.13;;;2.67;;
22983;SDS011;11658;48.908;9.140;2023-02-12T14:50:30;3.73;;;2.90;;
22983;SDS011;11658;48.908;9.140;2023-02-12T14:53:06;2.70;;;2.20;;
22983;SDS011;11658;48.908;9.140;2023-02-12T14:55:49;2.50;;;2.20;;
22983;SDS011;11658;48.908;9.140;2023-02-12T14:58:17;2.90;;;2.60;;
22983;SDS011;11658;48.908;9.140;2023-02-12T15:00:45;3.40;;;2.40;;
22983;SDS011;11658;48.908;9.140;2023-02-12T15:13:52;2.60;;;2.20;;
22983;SDS011;11658;48.908;9.140;2023-02-12T15:22:00;2.87;;;2.57;;
22983;SDS011;11658;48.908;9.140;2023-02-12T15:24:26;3.83;;;3.00;;
22983;SDS011;11658;48.908;9.140;2023-02-12T15:26:53;2.90;;;2.40;;
22983;SDS011;11658;48.908;9.140;2023-02-12T15:29:28;2.60;;;2.20;;
22983;SDS011;11658;48.908;9.140;2023-02-12T15:32:05;3.70;;;2.57;;
22983;SDS011;11658;48.908;9.140;2023-02-12T15:34:35;4.60;;;3.20;;
22983;SDS011;11658;48.908;9.140;2023-02-12T15:37:06;3.03;;;2.70;;
22983;SDS011;11658;48.908;9.140;2023-02-12T15:39:39;3.20;;;2.90;;
22983;SDS011;11658;48.908;9.140;2023-02-12T15:47:40;3.70;;;2.43;;
22983;SDS011;11658;48.908;9.140;2023-02-12T15:50:15;2.57;;;2.20;;
22983;SDS011;11658;48.908;9.140;2023-02-12T15:52:42;3.00;;;2.70;;
22983;SDS011;11658;48.908;9.140;2023-02-12T15:55:18;3.33;;;2.90;;
22983;SDS011;11658;48.908;9.140;2023-02-12T15:57:56;3.80;;;2.77;;
22983;SDS011;11658;48.908;9.140;2023-02-12T16:08:35;4.03;;;2.60;;
22983;SDS011;11658;48.908;9.140;2023-02-12T16:11:02;3.20;;;2.90;;
22983;SDS011;11658;48.908;9.140;2023-02-12T16:13:38;3.53;;;2.80;;
22983;SDS011;11658;48.908;9.140;2023-02-12T16:16:26;3.10;;;2.20;;
22983;SDS011;11658;48.908;9.140;2023-02-12T16:21:45;3.67;;;3.07;;
22983;SDS011;11658;48.908;9.140;2023-02-12T16:24:21;3.23;;;2.63;;
22983;SDS011;11658;48.908;9.140;2023-02-12T16:26:49;3.07;;;2.77;;
22983;SDS011;11658;48.908;9.140;2023-02-12T16:29:16;4.70;;;2.90;;
22983;SDS011;11658;48.908;9.140;2023-02-12T16:31:53;4.00;;;3.00;;
22983;SDS011;11658;48.908;9.140;2023-02-12T16:34:56;7.53;;;5.43;;
22983;SDS011;11658;48.908;9.140;2023-02-12T16:40:07;5.13;;;4.63;;
22983;SDS011;11658;48.908;9.140;2023-02-12T16:42:34;5.77;;;4.47;;
22983;SDS011;11658;48.908;9.140;2023-02-12T16:44:59;5.37;;;3.93;;
22983;SDS011;11658;48.908;9.140;2023-02-12T16:47:25;8.03;;;6.20;;
22983;SDS011;11658;48.908;9.140;2023-02-12T16:49:54;6.73;;;5.43;;
22983;SDS011;11658;48.908;9.140;2023-02-12T16:52:33;6.70;;;4.73;;
22983;SDS011;11658;48.908;9.140;2023-02-12T16:55:03;8.17;;;5.27;;
22983;SDS011;11658;48.908;9.140;2023-02-12T16:57:31;8.13;;;5.33;;
22983;SDS011;11658;48.908;9.140;2023-02-12T16:59:57;7.17;;;4.37;;
22983;SDS011;11658;48.908;9.140;2023-02-12T17:02:23;6.17;;;4.20;;
22983;SDS011;11658;48.908;9.140;2023-02-12T17:04:48;4.20;;;3.50;;
22983;SDS011;11658;48.908;9.140;2023-02-12T17:07:18;4.17;;;3.30;;
22983;SDS011;11658;48.908;9.140;2023-02-12T17:09:48;5.00;;;3.43;;
22983;SDS011;11658;48.908;9.140;2023-02-12T17:12:14;4.23;;;3.73;;
22983;SDS011;11658;48.908;9.140;2023-02-12T17:14:40;9.37;;;6.23;;
22983;SDS011;11658;48.908;9.140;2023-02-12T17:17:05;12.70;;;7.37;;
22983;SDS011;11658;48.908;9.140;2023-02-12T17:19:31;8.90;;;6.40;;
22983;SDS011;11658;48.908;9.140;2023-02-12T17:21:57;12.30;;;7.97;;
22983;SDS011;11658;48.908;9.140;2023-02-12T17:24:24;12.00;;;7.50;;
22983;SDS011;11658;48.908;9.140;2023-02-12T17:26:52;11.37;;;7.67;;
22983;SDS011;11658;48.908;9.140;2023-02-12T17:29:18;10.43;;;6.53;;
22983;SDS011;11658;48.908;9.140;2023-02-12T17:31:45;7.37;;;5.60;;
22983;SDS011;11658;48.908;9.140;2023-02-12T17:34:17;5.73;;;4.67;;
22983;SDS011;11658;48.908;9.140;2023-02-12T17:36:43;6.07;;;4.53;;
22983;SDS011;11658;48.908;9.140;2023-02-12T17:39:10;5.23;;;4.47;;
22983;SDS011;11658;48.908;9.140;2023-02-12T17:41:37;6.60;;;4.67;;
22983;SDS011;11658;48.908;9.140;2023-02-12T17:44:02;5.73;;;4.83;;
22983;SDS011;11658;48.908;9.140;2023-02-12T17:46:28;6.83;;;5.10;;
22983;SDS011;11658;48.908;9.140;2023-02-12T17:48:55;5.83;;;4.57;;
22983;SDS011;11658;48.908;9.140;2023-02-12T17:51:21;6.20;;;4.70;;
22983;SDS011;11658;48.908;9.140;2023-02-12T17:53:47;6.17;;;4.60;;
22983;SDS011;11658;48.908;9.140;2023-02-12T17:56:16;6.13;;;4.73;;
22983;SDS011;11658;48.908;9.140;2023-02-12T17:58:43;6.53;;;4.57;;
22983;SDS011;11658;48.908;9.140;2023-02-12T18:01:11;6.43;;;4.47;;
22983;SDS011;11658;48.908;9.140;2023-02-12T18:03:41;5.50;;;4.73;;
22983;SDS011;11658;48.908;9.140;2023-02-12T18:06:08;5.47;;;4.87;;
22983;SDS011;11658;48.908;9.140;2023-02-12T18:08:35;6.47;;;5.23;;
22983;SDS011;11658;48.908;9.140;2023-02-12T18:11:04;6.47;;;5.47;;
22983;SDS011;11658;48.908;9.140;2023-02-12T18:13:30;7.77;;;5.70;;
22983;SDS011;11658;48.908;9.140;2023-02-12T18:15:56;6.87;;;5.70;;
22983;SDS011;11658;48.908;9.140;2023-02-12T18:18:22;8.80;;;6.37;;
22983;SDS011;11658;48.908;9.140;2023-02-12T18:20:48;8.67;;;6.40;;
22983;SDS011;11658;48.908;9.140;2023-02-12T18:23:13;6.83;;;5.50;;
22983;SDS011;11658;48.908;9.140;2023-02-12T18:25:42;8.47;;;6.97;;
22983;SDS011;11658;48.908;9.140;2023-02-12T18:28:09;5.90;;;4.90;;
22983;SDS011;11658;48.908;9.140;2023-02-12T18:30:35;7.00;;;5.30;;
22983;SDS011;11658;48.908;9.140;2023-02-12T18:33:03;6.57;;;5.53;;
22983;SDS011;11658;48.908;9.140;2023-02-12T18:35:29;6.93;;;5.50;;
22983;SDS011;11658;48.908;9.140;2023-02-12T18:37:55;7.53;;;5.30;;
22983;SDS011;11658;48.908;9.140;2023-02-12T18:40:21;7.57;;;5.77;;
22983;SDS011;11658;48.908;9.140;2023-02-12T18:42:46;14.80;;;10.70;;
22983;SDS011;11658;48.908;9.140;2023-02-12T18:45:12;9.67;;;8.20;;
22983;SDS011;11658;48.908;9.140;2023-02-12T18:47:38;13.60;;;10.10;;
22983;SDS011;11658;48.908;9.140;2023-02-12T18:50:04;9.30;;;7.40;;
22983;SDS011;11658;48.908;9.140;2023-02-12T18:52:30;8.23;;;6.40;;
22983;SDS011;11658;48.908;9.140;2023-02-12T18:54:56;7.53;;;6.00;;
22983;SDS011;11658;48.908;9.140;2023-02-12T18:57:21;7.07;;;5.50;;
22983;SDS011;11658;48.908;9.140;2023-02-12T18:59:47;8.97;;;5.87;;
22983;SDS011;11658;48.908;9.140;2023-02-12T19:02:12;6.73;;;5.60;;
22983;SDS011;11658;48.908;9.140;2023-02-12T19:04:38;6.67;;;5.27;;
22983;SDS011;11658;48.908;9.140;2023-02-12T19:07:04;7.53;;;5.60;;
22983;SDS011;11658;48.908;9.140;2023-02-12T19:09:30;7.77;;;5.60;;
22983;SDS011;11658;48.908;9.140;2023-02-12T19:11:57;9.37;;;6.07;;
22983;SDS011;11658;48.908;9.140;2023-02-12T19:14:24;8.13;;;6.07;;
22983;SDS011;11658;48.908;9.140;2023-02-12T19:16:50;10.60;;;7.47;;
22983;SDS011;11658;48.908;9.140;2023-02-12T19:19:17;14.83;;;9.17;;
22983;SDS011;11658;48.908;9.140;2023-02-12T19:21:44;12.43;;;8.77;;
22983;SDS011;11658;48.908;9.140;2023-02-12T19:24:11;12.00;;;8.97;;
22983;SDS011;11658;48.908;9.140;2023-02-12T19:26:38;10.80;;;8.10;;
22983;SDS011;11658;48.908;9.140;2023-02-12T19:29:05;10.53;;;7.40;;
22983;SDS011;11658;48.908;9.140;2023-02-12T19:31:32;9.73;;;7.10;;
22983;SDS011;11658;48.908;9.140;2023-02-12T19:34:04;8.67;;;7.30;;
22983;SDS011;11658;48.908;9.140;2023-02-12T19:36:32;9.37;;;7.53;;
22983;SDS011;11658;48.908;9.140;2023-02-12T19:38:59;9.17;;;6.60;;
22983;SDS011;11658;48.908;9.140;2023-02-12T19:41:25;10.00;;;7.37;;
22983;SDS011;11658;48.908;9.140;2023-02-12T19:43:56;10.57;;;7.67;;
22983;SDS011;11658;48.908;9.140;2023-02-12T19:46:23;9.07;;;7.00;;
22983;SDS011;11658;48.908;9.140;2023-02-12T19:48:53;8.90;;;7.03;;
22983;SDS011;11658;48.908;9.140;2023-02-12T19:51:21;8.23;;;7.37;;
22983;SDS011;11658;48.908;9.140;2023-02-12T19:53:48;8.30;;;6.50;;
22983;SDS011;11658;48.908;9.140;2023-02-12T19:56:15;8.63;;;7.43;;
22983;SDS011;11658;48.908;9.140;2023-02-12T19:58:41;13.07;;;7.37;;
22983;SDS011;11658;48.908;9.140;2023-02-12T20:01:08;12.37;;;7.63;;
22983;SDS011;11658;48.908;9.140;2023-02-12T20:03:37;9.13;;;7.43;;
22983;SDS011;11658;48.908;9.140;2023-02-12T20:06:05;10.20;;;7.87;;
22983;SDS011;11658;48.908;9.140;2023-02-12T20:08:33;11.47;;;8.03;;
22983;SDS011;11658;48.908;9.140;2023-02-12T20:11:08;13.20;;;8.97;;
22983;SDS011;11658;48.908;9.140;2023-02-12T20:13:44;11.00;;;8.77;;
22983;SDS011;11658;48.908;9.140;2023-02-12T20:16:14;12.57;;;9.10;;
22983;SDS011;11658;48.908;9.140;2023-02-12T20:18:42;11.37;;;8.43;;
22983;SDS011;11658;48.908;9.140;2023-02-12T20:21:09;11.17;;;9.00;;
22983;SDS011;11658;48.908;9.140;2023-02-12T20:23:36;13.40;;;9.00;;
22983;SDS011;11658;48.908;9.140;2023-02-12T20:26:03;12.50;;;8.73;;
22983;SDS011;11658;48.908;9.140;2023-02-12T20:28:30;12.93;;;8.40;;
22983;SDS011;11658;48.908;9.140;2023-02-12T20:30:55;11.67;;;8.77;;
22983;SDS011;11658;48.908;9.140;2023-02-12T20:33:21;10.93;;;8.77;;
22983;SDS011;11658;48.908;9.140;2023-02-12T20:35:53;10.10;;;8.37;;
22983;SDS011;11658;48.908;9.140;2023-02-12T20:38:20;10.70;;;8.00;;
22983;SDS011;11658;48.908;9.140;2023-02-12T20:40:46;11.33;;;8.37;;
22983;SDS011;11658;48.908;9.140;2023-02-12T20:43:11;10.00;;;8.33;;
22983;SDS011;11658;48.908;9.140;2023-02-12T20:45:37;9.33;;;8.10;;
22983;SDS011;11658;48.908;9.140;2023-02-12T20:48:03;10.70;;;8.13;;
22983;SDS011;11658;48.908;9.140;2023-02-12T20:50:28;11.83;;;8.07;;
22983;SDS011;11658;48.908;9.140;2023-02-12T20:52:54;10.57;;;9.10;;
22983;SDS011;11658;48.908;9.140;2023-02-12T20:55:19;11.97;;;9.10;;
22983;SDS011;11658;48.908;9.140;2023-02-12T20:57:45;11.63;;;9.70;;
22983;SDS011;11658;48.908;9.140;2023-02-12T21:00:13;12.63;;;9.83;;
22983;SDS011;11658;48.908;9.140;2023-02-12T21:02:39;12.80;;;10.13;;
22983;SDS011;11658;48.908;9.140;2023-02-12T21:05:05;14.77;;;10.67;;
22983;SDS011;11658;48.908;9.140;2023-02-12T21:07:31;13.33;;;10.10;;
22983;SDS011;11658;48.908;9.140;2023-02-12T21:09:57;15.70;;;11.40;;
22983;SDS011;11658;48.908;9.140;2023-02-12T21:12:22;14.47;;;10.83;;
22983;SDS011;11658;48.908;9.140;2023-02-12T21:14:48;16.23;;;11.27;;
22983;SDS011;11658;48.908;9.140;2023-02-12T21:17:13;16.10;;;11.30;;
22983;SDS011;11658;48.908;9.140;2023-02-12T21:19:39;14.80;;;11.33;;
22983;SDS011;11658;48.908;9.140;2023-02-12T21:22:05;12.70;;;10.43;;
22983;SDS011;11658;48.908;9.140;2023-02-12T21:24:30;15.57;;;11.43;;
22983;SDS011;11658;48.908;9.140;2023-02-12T21:26:57;15.20;;;11.17;;
22983;SDS011;11658;48.908;9.140;2023-02-12T21:29:23;15.03;;;11.10;;
22983;SDS011;11658;48.908;9.140;2023-02-12T21:31:51;13.80;;;10.83;;
22983;SDS011;11658;48.908;9.140;2023-02-12T21:34:18;14.80;;;10.43;;
22983;SDS011;11658;48.908;9.140;2023-02-12T21:36:46;20.00;;;12.00;;
22983;SDS011;11658;48.908;9.140;2023-02-12T21:39:14;15.40;;;11.20;;
22983;SDS011;11658;48.908;9.140;2023-02-12T21:41:48;14.90;;;11.07;;
22983;SDS011;11658;48.908;9.140;2023-02-12T21:44:17;16.90;;;11.43;;
22983;SDS011;11658;48.908;9.140;2023-02-12T21:46:44;14.53;;;10.37;;
22983;SDS011;11658;48.908;9.140;2023-02-12T21:49:14;13.90;;;10.57;;
22983;SDS011;11658;48.908;9.140;2023-02-12T21:51:48;13.67;;;10.57;;
22983;SDS011;11658;48.908;9.140;2023-02-12T21:54:15;13.27;;;10.13;;
22983;SDS011;11658;48.908;9.140;2023-02-12T21:56:41;13.03;;;10.30;;
22983;SDS011;11658;48.908;9.140;2023-02-12T21:59:08;14.47;;;10.23;;
